createdAt,value
2019-02-27T00:01:36.543Z,99997.16
2019-02-27T00:04:07.935Z,99991.02
2019-02-27T00:06:39.388Z,99993.64
2019-02-27T00:09:10.624Z,99997.14
2019-02-27T00:11:45.842Z,99991.02
2019-02-27T00:14:15.066Z,99994.09
2019-02-27T00:16:46.509Z,99994.08
2019-02-27T00:19:17.278Z,99993.64
2019-02-27T00:21:48.487Z,99996.22
2019-02-27T00:24:19.422Z,99994.08
2019-02-27T00:26:50.195Z,99994.09
2019-02-27T00:29:20.992Z,100000.19
2019-02-27T00:31:51.866Z,99993.67
2019-02-27T00:34:22.868Z,99997.98
2019-02-27T00:36:54.236Z,100006.30
2019-02-27T00:39:25.674Z,100001.95
2019-02-27T00:41:57.115Z,100009.33
2019-02-27T00:44:28.568Z,100005.84
2019-02-27T00:47:01.198Z,100006.67
2019-02-27T00:49:32.323Z,100003.20
2019-02-27T00:52:04.504Z,100001.91
2019-02-27T00:54:36.322Z,100001.49
2019-02-27T00:57:07.051Z,100010.65
2019-02-27T00:59:38.195Z,100004.11
2019-02-27T01:02:09.849Z,100005.42
2019-02-27T01:04:41.199Z,100004.13
2019-02-27T01:07:12.647Z,100012.81
2019-02-27T01:09:43.891Z,100000.63
2019-02-27T01:12:15.338Z,100000.22
2019-02-27T01:14:46.108Z,100001.52
2019-02-27T01:17:16.985Z,100001.08
2019-02-27T01:19:48.561Z,100004.98
2019-02-27T01:22:19.334Z,100003.27
2019-02-27T01:24:50.688Z,100007.61
2019-02-27T01:27:21.786Z,100011.94
2019-02-27T01:29:53.235Z,100005.00
2019-02-27T01:32:24.486Z,100004.56
2019-02-27T01:34:57.547Z,100014.14
2019-02-27T01:37:31.663Z,100016.34
2019-02-27T01:40:02.317Z,100017.63
2019-02-27T01:42:33.867Z,100022.41
2019-02-27T01:45:05.978Z,100028.95
2019-02-27T01:47:36.565Z,100029.39
2019-02-27T01:50:29.719Z,100026.77
2019-02-27T01:53:07.116Z,100032.02
2019-02-27T01:55:36.110Z,100029.82
2019-02-27T01:58:09.561Z,100033.30
2019-02-27T02:00:40.445Z,100024.59
2019-02-27T02:03:13.687Z,100025.03
2019-02-27T02:05:45.982Z,100025.47
2019-02-27T02:08:16.869Z,100023.27
2019-02-27T02:10:47.669Z,100023.27
2019-02-27T02:13:20.485Z,100023.72
2019-02-27T02:16:03.266Z,100023.28
2019-02-27T02:19:05.413Z,100027.64
2019-02-27T02:21:48.864Z,100027.19
2019-02-27T02:24:41.626Z,100024.59
2019-02-27T02:27:27.505Z,100026.30
2019-02-27T02:30:29.355Z,100032.40
2019-02-27T02:33:09.731Z,100032.82
2019-02-27T02:36:05.447Z,100032.82
2019-02-27T02:38:48.874Z,100028.48
2019-02-27T02:41:46.259Z,100021.91
2019-02-27T02:44:25.022Z,100016.23
2019-02-27T02:47:21.038Z,100020.18
2019-02-27T02:50:19.873Z,100026.28
2019-02-27T02:52:57.263Z,100031.93
2019-02-27T02:55:35.164Z,100036.30
2019-02-27T02:58:11.564Z,100033.70
2019-02-27T03:00:48.512Z,100045.88
2019-02-27T03:03:41.507Z,100044.14
2019-02-27T03:06:46.559Z,100045.45
2019-02-27T03:09:21.440Z,100044.16
2019-02-27T03:12:18.894Z,100047.63
2019-02-27T03:15:02.528Z,100043.70
2019-02-27T03:17:56.620Z,100048.97
2019-02-27T03:20:37.071Z,100054.64
2019-02-27T03:23:40.377Z,100058.11
2019-02-27T03:26:23.900Z,100061.16
2019-02-27T03:29:22.385Z,100058.98
2019-02-27T03:32:10.838Z,100062.02
2019-02-27T03:34:51.710Z,100066.35
2019-02-27T03:37:38.409Z,100062.47
2019-02-27T03:40:45.140Z,100063.30
2019-02-27T03:43:46.702Z,100065.48
2019-02-27T03:46:30.412Z,100065.95
2019-02-27T03:49:07.879Z,100069.84
2019-02-27T03:51:48.742Z,100074.64
2019-02-27T03:54:35.381Z,100073.78
2019-02-27T03:57:26.635Z,100070.71
2019-02-27T04:00:27.194Z,100079.00
2019-02-27T04:03:23.123Z,100082.91
2019-02-27T04:06:12.179Z,100081.62
2019-02-27T04:08:57.050Z,100089.47
2019-02-27T04:11:28.104Z,100095.56
2019-02-27T04:14:04.648Z,100097.75
2019-02-27T04:16:32.536Z,100097.73
2019-02-27T04:19:05.121Z,100106.89
2019-02-27T04:21:36.343Z,100110.81
2019-02-27T04:24:07.114Z,100105.57
2019-02-27T04:26:41.642Z,100111.66
2019-02-27T04:29:10.800Z,100106.00
2019-02-27T04:31:43.372Z,100112.54
2019-02-27T04:34:15.099Z,100115.58
2019-02-27T04:36:47.288Z,100117.77
2019-02-27T04:39:19.156Z,100119.07
2019-02-27T04:41:51.972Z,100119.08
2019-02-27T04:44:23.600Z,100124.72
2019-02-27T04:46:55.618Z,100121.68
2019-02-27T04:49:26.907Z,100124.28
2019-02-27T04:51:58.359Z,100135.61
2019-02-27T04:54:30.146Z,100135.61
2019-02-27T04:57:01.389Z,100143.02
2019-02-27T04:59:33.014Z,100143.46
2019-02-27T05:02:05.338Z,100141.27
2019-02-27T05:04:36.864Z,100148.26
2019-02-27T05:07:08.390Z,100154.80
2019-02-27T05:09:41.267Z,100153.47
2019-02-27T05:12:13.643Z,100158.70
2019-02-27T05:14:44.991Z,100153.03
2019-02-27T05:17:21.164Z,100162.19
2019-02-27T05:19:52.065Z,100154.80
2019-02-27T05:22:26.422Z,100162.20
2019-02-27T05:24:57.056Z,100171.35
2019-02-27T05:27:28.491Z,100160.00
2019-02-27T05:30:00.193Z,100175.69
2019-02-27T05:32:31.902Z,100175.70
2019-02-27T05:35:03.349Z,100178.30
2019-02-27T05:37:36.106Z,100178.31
2019-02-27T05:40:09.773Z,100173.95
2019-02-27T05:42:40.975Z,100180.91
2019-02-27T05:45:13.353Z,100183.06
2019-02-27T05:47:45.960Z,100188.31
2019-02-27T05:50:17.166Z,100190.48
2019-02-27T05:52:49.672Z,100191.78
2019-02-27T05:55:20.983Z,100197.46
2019-02-27T05:57:52.434Z,100199.20
2019-02-27T06:00:23.691Z,100208.80
2019-02-27T06:02:56.859Z,100203.57
2019-02-27T06:05:28.524Z,100211.87
2019-02-27T06:08:02.038Z,100208.78
2019-02-27T06:10:32.152Z,100205.33
2019-02-27T06:13:02.882Z,100212.28
2019-02-27T06:15:33.816Z,100210.53
2019-02-27T06:18:05.773Z,100207.90
2019-02-27T06:20:38.945Z,100218.82
2019-02-27T06:23:12.055Z,100223.60
2019-02-27T06:25:43.300Z,100229.69
2019-02-27T06:28:18.521Z,100226.22
2019-02-27T06:30:47.849Z,100225.73
2019-02-27T06:33:19.493Z,100216.58
2019-02-27T06:35:51.047Z,100220.91
2019-02-27T06:38:25.018Z,100228.73
2019-02-27T06:40:55.998Z,100216.90
2019-02-27T06:43:27.932Z,100226.11
2019-02-27T06:45:59.311Z,100213.08
2019-02-27T06:48:30.864Z,100223.09
2019-02-27T06:51:01.686Z,100221.36
2019-02-27T06:53:33.046Z,100221.81
2019-02-27T06:56:04.429Z,100215.70
2019-02-27T06:58:35.875Z,100226.16
2019-02-27T07:01:09.121Z,100225.29
2019-02-27T07:03:39.904Z,100220.95
2019-02-27T07:06:11.217Z,100225.74
2019-02-27T07:08:42.662Z,100224.00
2019-02-27T07:11:14.218Z,100217.48
2019-02-27T07:13:47.112Z,100222.25
2019-02-27T07:16:20.544Z,100222.66
2019-02-27T07:18:52.156Z,100220.05
2019-02-27T07:21:22.918Z,100227.86
2019-02-27T07:23:57.700Z,100230.04
2019-02-27T07:26:27.829Z,100228.21
2019-02-27T07:28:59.487Z,100230.41
2019-02-27T07:31:30.833Z,100233.29
2019-02-27T07:34:02.181Z,100238.08
2019-02-27T07:36:35.979Z,100229.49
2019-02-27T07:39:09.486Z,100234.73
2019-02-27T07:41:40.891Z,100235.56
2019-02-27T07:44:12.500Z,100232.91
2019-02-27T07:46:43.943Z,100233.39
2019-02-27T07:49:14.807Z,100235.91
2019-02-27T07:51:45.922Z,100241.56
2019-02-27T07:54:17.743Z,100240.50
2019-02-27T07:56:49.025Z,100235.20
2019-02-27T07:59:19.785Z,100243.73
2019-02-27T08:01:51.953Z,100250.03
2019-02-27T08:04:23.086Z,100251.76
2019-02-27T08:06:54.428Z,100257.45
2019-02-27T08:09:29.865Z,100263.56
2019-02-27T08:11:58.131Z,100253.80
2019-02-27T08:14:29.276Z,100255.56
2019-02-27T08:17:00.141Z,100276.56
2019-02-27T08:19:31.254Z,100270.51
2019-02-27T08:22:02.916Z,100277.95
2019-02-27T08:24:34.439Z,100269.08
2019-02-27T08:27:09.584Z,100272.15
2019-02-27T08:29:40.635Z,100278.15
2019-02-27T08:32:12.395Z,100280.65
2019-02-27T08:34:43.156Z,100273.88
2019-02-27T08:37:14.370Z,100278.25
2019-02-27T08:39:46.131Z,100281.38
2019-02-27T08:42:18.714Z,100297.52
2019-02-27T08:44:49.472Z,100291.80
2019-02-27T08:47:20.589Z,100284.39
2019-02-27T08:49:51.720Z,100278.19
2019-02-27T08:52:23.375Z,100283.43
2019-02-27T08:54:54.523Z,100286.11
2019-02-27T08:57:26.274Z,100300.08
2019-02-27T08:59:57.048Z,100279.83
2019-02-27T09:02:29.530Z,100262.50
2019-02-27T09:05:01.225Z,100273.28
2019-02-27T09:07:33.892Z,100288.34
2019-02-27T09:10:08.747Z,100284.89
2019-02-27T09:12:40.361Z,100291.95
2019-02-27T09:15:13.247Z,100282.23
2019-02-27T09:17:44.845Z,100281.84
2019-02-27T09:20:19.768Z,100285.43
2019-02-27T09:22:52.762Z,100292.57
2019-02-27T09:25:25.950Z,100289.60
2019-02-27T09:27:57.500Z,100292.66
2019-02-27T09:30:30.085Z,100290.89
2019-02-27T09:33:01.540Z,100293.48
2019-02-27T09:35:34.492Z,100295.23
2019-02-27T09:38:08.628Z,100283.38
2019-02-27T09:40:40.084Z,100285.56
2019-02-27T09:43:12.656Z,100293.08
2019-02-27T09:45:46.144Z,100304.71
2019-02-27T09:48:16.715Z,100309.67
2019-02-27T09:50:49.172Z,100323.50
2019-02-27T09:53:21.528Z,100309.57
2019-02-27T09:55:54.281Z,100312.16
2019-02-27T09:58:26.174Z,100308.30
2019-02-27T10:01:03.160Z,100306.91
2019-02-27T10:03:34.853Z,100310.23
2019-02-27T10:06:08.742Z,100299.58
2019-02-27T10:08:39.391Z,100295.03
2019-02-27T10:11:10.211Z,100296.54
2019-02-27T10:13:41.286Z,100312.41
2019-02-27T10:16:12.870Z,100303.86
2019-02-27T10:18:43.639Z,100296.86
2019-02-27T10:21:14.860Z,100311.63
2019-02-27T10:23:45.717Z,100314.38
2019-02-27T10:26:19.531Z,100297.59
2019-02-27T10:28:50.531Z,100294.03
2019-02-27T10:31:21.977Z,100285.81
2019-02-27T10:33:52.849Z,100292.77
2019-02-27T10:36:24.120Z,100291.41
2019-02-27T10:38:55.816Z,100288.73
2019-02-27T10:41:27.173Z,100305.58
2019-02-27T10:43:58.635Z,100318.86
2019-02-27T10:46:29.483Z,100315.33
2019-02-27T10:49:00.696Z,100309.22
2019-02-27T10:51:31.937Z,100296.28
2019-02-27T10:54:05.414Z,100292.40
2019-02-27T10:56:36.993Z,100285.57
2019-02-27T10:59:07.861Z,100292.88
2019-02-27T11:01:39.515Z,100291.41
2019-02-27T11:04:10.731Z,100298.77
2019-02-27T11:06:42.074Z,100303.80
2019-02-27T11:09:24.771Z,100295.02
2019-02-27T11:11:56.031Z,100295.63
2019-02-27T11:14:31.670Z,100301.32
2019-02-27T11:17:02.575Z,100299.11
2019-02-27T11:19:35.139Z,100301.06
2019-02-27T11:22:06.749Z,100297.44
2019-02-27T11:24:38.000Z,100300.42
2019-02-27T11:27:09.964Z,100288.59
2019-02-27T11:29:40.899Z,100292.08
2019-02-27T11:32:12.445Z,100295.83
2019-02-27T11:34:45.543Z,100296.66
2019-02-27T11:37:17.123Z,100295.28
2019-02-27T11:39:48.987Z,100299.75
2019-02-27T11:42:20.021Z,100292.27
2019-02-27T11:44:50.958Z,100297.58
2019-02-27T11:47:21.794Z,100299.70
2019-02-27T11:49:52.909Z,100301.00
2019-02-27T11:52:27.858Z,100304.02
2019-02-27T11:54:56.832Z,100300.66
2019-02-27T11:57:30.580Z,100303.42
2019-02-27T12:00:01.365Z,100315.68
2019-02-27T12:02:36.994Z,100313.51
2019-02-27T12:05:09.220Z,100311.44
2019-02-27T12:07:40.433Z,100313.62
2019-02-27T12:10:18.362Z,100318.75
2019-02-27T12:12:49.780Z,100323.55
2019-02-27T12:15:20.955Z,100310.82
2019-02-27T12:17:51.962Z,100320.53
2019-02-27T12:20:24.125Z,100322.34
2019-02-27T12:22:55.266Z,100319.72
2019-02-27T12:25:29.171Z,100327.59
2019-02-27T12:28:00.556Z,100331.87
2019-02-27T12:30:32.010Z,100341.25
2019-02-27T12:33:04.048Z,100345.10
2019-02-27T12:35:37.407Z,100338.14
2019-02-27T12:38:08.989Z,100343.92
2019-02-27T12:40:41.715Z,100340.89
2019-02-27T12:43:17.359Z,100334.78
2019-02-27T12:45:46.103Z,100336.09
2019-02-27T12:48:17.762Z,100327.33
2019-02-27T12:50:49.103Z,100323.30
2019-02-27T12:53:21.999Z,100321.58
2019-02-27T12:55:54.519Z,100326.73
2019-02-27T12:58:25.816Z,100320.22
2019-02-27T13:00:57.273Z,100325.37
2019-02-27T13:03:31.477Z,100328.09
2019-02-27T13:06:03.036Z,100323.20
2019-02-27T13:08:34.277Z,100330.16
2019-02-27T13:11:07.975Z,100338.53
2019-02-27T13:13:39.022Z,100335.87
2019-02-27T13:16:14.212Z,100338.13
2019-02-27T13:18:43.871Z,100331.58
2019-02-27T13:21:20.091Z,100336.95
2019-02-27T13:23:48.724Z,100333.43
2019-02-27T13:26:20.374Z,100341.25
2019-02-27T13:28:51.709Z,100345.23
2019-02-27T13:31:23.368Z,100345.19
2019-02-27T13:33:55.535Z,100347.86
2019-02-27T13:36:26.509Z,100347.86
2019-02-27T13:38:59.335Z,100348.23
2019-02-27T13:41:30.706Z,100351.30
2019-02-27T13:44:02.257Z,100349.13
2019-02-27T13:46:34.017Z,100350.03
2019-02-27T13:49:05.668Z,100348.30
2019-02-27T13:51:40.314Z,100351.38
2019-02-27T13:54:11.532Z,100354.38
2019-02-27T13:56:42.898Z,100356.09
2019-02-27T13:59:14.536Z,100355.31
2019-02-27T14:01:45.711Z,100355.77
2019-02-27T14:04:21.913Z,100359.73
2019-02-27T14:06:50.229Z,100352.39
2019-02-27T14:09:22.085Z,100364.24
2019-02-27T14:11:58.394Z,100370.84
2019-02-27T14:14:28.257Z,100360.39
2019-02-27T14:17:00.014Z,100358.19
2019-02-27T14:19:31.494Z,100366.50
2019-02-27T14:22:07.095Z,100361.67
2019-02-27T14:24:38.273Z,100366.05
2019-02-27T14:27:12.026Z,100368.70
2019-02-27T14:29:42.695Z,100363.84
2019-02-27T14:32:14.484Z,100369.09
2019-02-27T14:34:47.435Z,100366.48
2019-02-27T14:37:18.227Z,100373.47
2019-02-27T14:39:49.311Z,100373.00
2019-02-27T14:42:21.355Z,100370.45
2019-02-27T14:44:52.516Z,100365.67
2019-02-27T14:47:24.073Z,100368.23
2019-02-27T14:49:55.950Z,100368.23
2019-02-27T14:52:27.889Z,100374.83
2019-02-27T14:55:02.977Z,100373.53
2019-02-27T14:57:32.428Z,100375.71
2019-02-27T15:00:05.893Z,100378.33
2019-02-27T15:02:37.647Z,100382.72
2019-02-27T15:05:09.210Z,100378.80
2019-02-27T15:07:41.613Z,100380.53
2019-02-27T15:10:15.583Z,100375.28
2019-02-27T15:12:46.969Z,100376.15
2019-02-27T15:15:21.186Z,100382.72
2019-02-27T15:17:52.531Z,100385.78
2019-02-27T15:20:25.997Z,100383.18
2019-02-27T15:22:57.280Z,100385.78
2019-02-27T15:25:28.518Z,100391.45
2019-02-27T15:28:00.043Z,100401.95
2019-02-27T15:30:34.487Z,100400.20
2019-02-27T15:33:05.952Z,100398.90
2019-02-27T15:35:37.146Z,100405.47
2019-02-27T15:38:11.539Z,100399.36
2019-02-27T15:40:41.836Z,100402.38
2019-02-27T15:43:16.980Z,100408.94
2019-02-27T15:45:49.065Z,100410.69
2019-02-27T15:48:20.381Z,100417.23
2019-02-27T15:50:56.619Z,100426.84
2019-02-27T15:53:26.652Z,100432.95
2019-02-27T15:55:58.008Z,100435.12
2019-02-27T15:58:29.469Z,100436.87
2019-02-27T16:01:01.221Z,100444.73
2019-02-27T16:03:35.314Z,100446.05
2019-02-27T16:06:06.998Z,100442.99
2019-02-27T16:08:38.835Z,100446.91
2019-02-27T16:11:10.493Z,100442.54
2019-02-27T16:13:43.079Z,100442.98
2019-02-27T16:16:16.359Z,100440.82
2019-02-27T16:18:49.454Z,100444.75
2019-02-27T16:21:23.583Z,100452.16
2019-02-27T16:23:55.016Z,100451.28
2019-02-27T16:26:27.173Z,100448.66
2019-02-27T16:28:58.933Z,100450.42
2019-02-27T16:31:30.588Z,100453.03
2019-02-27T16:34:02.260Z,100455.20
2019-02-27T16:36:36.225Z,100459.16
2019-02-27T16:39:07.384Z,100461.33
2019-02-27T16:41:41.408Z,100449.09
2019-02-27T16:44:14.010Z,100453.03
2019-02-27T16:46:45.341Z,100453.02
2019-02-27T16:49:16.780Z,100448.67
2019-02-27T16:51:49.167Z,100456.53
2019-02-27T16:54:20.905Z,100451.28
2019-02-27T16:56:52.645Z,100452.15
2019-02-27T16:59:23.328Z,100446.93
2019-02-27T17:01:54.847Z,100448.22
2019-02-27T17:04:26.201Z,100448.66
2019-02-27T17:06:57.750Z,100446.89
2019-02-27T17:09:29.423Z,100447.80
2019-02-27T17:12:04.285Z,100447.77
2019-02-27T17:14:33.947Z,100446.91
2019-02-27T17:17:05.352Z,100440.38
2019-02-27T17:19:37.773Z,100439.49
2019-02-27T17:22:11.061Z,100434.24
2019-02-27T17:24:43.017Z,100433.82
2019-02-27T17:27:16.366Z,100445.16
2019-02-27T17:29:47.254Z,100437.74
2019-02-27T17:32:18.808Z,100438.17
2019-02-27T17:34:50.257Z,100446.89
2019-02-27T17:37:23.275Z,100431.17
2019-02-27T17:39:54.379Z,100433.34
2019-02-27T17:42:27.366Z,100440.76
2019-02-27T17:44:58.507Z,100439.91
2019-02-27T17:47:29.479Z,100444.26
2019-02-27T17:50:00.545Z,100445.12
2019-02-27T17:52:32.652Z,100442.51
2019-02-27T17:55:07.560Z,100445.14
2019-02-27T17:57:38.841Z,100436.44
2019-02-27T18:00:15.963Z,100438.59
2019-02-27T18:02:48.418Z,100436.41
2019-02-27T18:05:22.289Z,100437.30
2019-02-27T18:07:53.902Z,100438.13
2019-02-27T18:10:26.729Z,100441.65
2019-02-27T18:12:58.824Z,100435.55
2019-02-27T18:15:31.689Z,100437.70
2019-02-27T18:18:07.198Z,100441.64
2019-02-27T18:20:38.714Z,100441.20
2019-02-27T18:23:10.392Z,100442.51
2019-02-27T18:25:42.361Z,100449.45
2019-02-27T18:28:13.541Z,100447.27
2019-02-27T18:30:45.915Z,100448.56
2019-02-27T18:33:17.685Z,100446.83
2019-02-27T18:35:49.223Z,100453.76
2019-02-27T18:38:20.101Z,100456.38
2019-02-27T18:40:51.835Z,100446.38
2019-02-27T18:43:23.165Z,100452.05
2019-02-27T18:45:54.418Z,100448.95
2019-02-27T18:48:26.892Z,100452.05
2019-02-27T18:50:59.416Z,100459.03
2019-02-27T18:53:32.270Z,100453.77
2019-02-27T18:56:03.485Z,100456.43
2019-02-27T18:58:35.141Z,100447.70
2019-02-27T19:01:09.966Z,100439.42
2019-02-27T19:03:42.135Z,100437.66
2019-02-27T19:06:14.323Z,100436.36
2019-02-27T19:08:49.846Z,100429.39
2019-02-27T19:11:22.410Z,100429.36
2019-02-27T19:13:53.873Z,100425.89
2019-02-27T19:16:25.976Z,100418.88
2019-02-27T19:18:57.713Z,100422.34
2019-02-27T19:21:32.756Z,100422.38
2019-02-27T19:24:02.172Z,100418.02
2019-02-27T19:26:32.994Z,100411.02
2019-02-27T19:29:05.747Z,100406.25
2019-02-27T19:31:36.483Z,100404.06
2019-02-27T19:34:10.258Z,100393.55
2019-02-27T19:36:42.162Z,100394.87
2019-02-27T19:39:13.702Z,100400.50
2019-02-27T19:41:45.356Z,100403.07
2019-02-27T19:44:16.801Z,100404.42
2019-02-27T19:46:48.456Z,100396.14
2019-02-27T19:49:20.221Z,100396.58
2019-02-27T19:51:54.913Z,100399.63
2019-02-27T19:54:26.112Z,100408.39
2019-02-27T19:56:58.965Z,100400.49
2019-02-27T19:59:30.116Z,100396.16
2019-02-27T20:02:04.047Z,100400.52
2019-02-27T20:04:35.264Z,100391.84
2019-02-27T20:07:07.154Z,100387.00
2019-02-27T20:09:38.877Z,100392.64
2019-02-27T20:12:12.720Z,100384.35
2019-02-27T20:14:43.429Z,100385.20
2019-02-27T20:17:14.181Z,100380.37
2019-02-27T20:19:47.047Z,100379.47
2019-02-27T20:22:19.730Z,100379.96
2019-02-27T20:24:51.164Z,100375.57
2019-02-27T20:27:25.908Z,100372.53
2019-02-27T20:29:55.711Z,100362.07
2019-02-27T20:32:28.531Z,100358.14
2019-02-27T20:35:00.964Z,100356.83
2019-02-27T20:37:34.089Z,100356.80
2019-02-27T20:40:08.056Z,100354.18
2019-02-27T20:42:39.310Z,100348.96
2019-02-27T20:45:20.890Z,100341.13
2019-02-27T20:47:57.732Z,100342.86
2019-02-27T20:50:43.580Z,100336.76
2019-02-27T20:53:15.531Z,100334.98
2019-02-27T20:55:46.867Z,100329.41
2019-02-27T20:58:18.219Z,100326.34
2019-02-27T21:00:49.969Z,100322.45
2019-02-27T21:03:21.232Z,100314.14
2019-02-27T21:05:52.800Z,100314.53
2019-02-27T21:08:24.012Z,100307.11
2019-02-27T21:10:56.413Z,100303.68
2019-02-27T21:13:27.732Z,100294.57
2019-02-27T21:15:58.981Z,100302.44
2019-02-27T21:18:32.573Z,100293.23
2019-02-27T21:21:05.479Z,100293.25
2019-02-27T21:23:37.021Z,100296.30
2019-02-27T21:26:08.578Z,100295.91
2019-02-27T21:28:43.731Z,100297.98
2019-02-27T21:31:16.358Z,100298.95
2019-02-27T21:33:47.137Z,100294.97
2019-02-27T21:36:20.911Z,100298.55
2019-02-27T21:38:54.934Z,100289.81
2019-02-27T21:41:28.213Z,100290.66
2019-02-27T21:43:58.984Z,100295.02
2019-02-27T21:46:33.369Z,100287.61
2019-02-27T21:49:05.346Z,100285.01
2019-02-27T21:51:36.950Z,100281.96
2019-02-27T21:54:09.249Z,100280.59
2019-02-27T21:56:40.705Z,100290.63
2019-02-27T21:59:14.120Z,100281.03
2019-02-27T22:01:48.865Z,100272.31
2019-02-27T22:04:21.312Z,100277.50
2019-02-27T22:07:02.179Z,100266.16
2019-02-27T22:09:33.837Z,100258.75
2019-02-27T22:12:05.581Z,100258.73
2019-02-27T22:14:37.659Z,100260.05
2019-02-27T22:17:09.424Z,100259.97
2019-02-27T22:19:41.383Z,100265.20
2019-02-27T22:22:13.240Z,100266.08
2019-02-27T22:24:46.837Z,100272.14
2019-02-27T22:27:20.137Z,100274.33
2019-02-27T22:29:52.284Z,100273.91
2019-02-27T22:32:23.632Z,100274.33
2019-02-27T22:34:54.877Z,100273.45
2019-02-27T22:37:26.329Z,100260.38
2019-02-27T22:39:57.709Z,100268.20
2019-02-27T22:42:28.612Z,100269.11
2019-02-27T22:45:00.621Z,100263.36
2019-02-27T22:47:32.537Z,100266.45
2019-02-27T22:50:06.934Z,100258.19
2019-02-27T22:52:39.035Z,100263.38
2019-02-27T22:55:10.730Z,100255.14
2019-02-27T22:57:41.820Z,100259.92
2019-02-27T23:00:49.249Z,100252.53
2019-02-27T23:03:34.815Z,100249.41
2019-02-27T23:06:09.206Z,100250.20
2019-02-27T23:08:41.387Z,100244.91
2019-02-27T23:11:13.134Z,100241.48
2019-02-27T23:13:47.421Z,100239.31
2019-02-27T23:16:20.242Z,100235.84
2019-02-27T23:18:51.899Z,100237.02
2019-02-27T23:21:22.659Z,100238.32
2019-02-27T23:23:53.559Z,100241.39
2019-02-27T23:26:24.327Z,100240.55
2019-02-27T23:28:55.335Z,100242.21
2019-02-27T23:31:27.008Z,100237.00
2019-02-27T23:33:58.552Z,100233.95
2019-02-27T23:36:30.095Z,100226.95
2019-02-27T23:39:00.759Z,100230.00
2019-02-27T23:41:33.205Z,100219.61
2019-02-27T23:44:05.466Z,100207.29
2019-02-27T23:46:37.228Z,100208.98
2019-02-27T23:49:08.468Z,100212.61
2019-02-27T23:51:40.328Z,100211.78
2019-02-27T23:54:11.776Z,100207.94
2019-02-27T23:56:43.230Z,100201.38
2019-02-27T23:59:14.882Z,100195.67
